Latest Weather Observations for Charles Point

IDD60901

Issued at 1:25 pm CST Friday 19 September 2014 (issued every 10 minutes, with the page automatically refreshed every 10 minutes)

About weather observations | Map of Darwin area stations | Latest observations for Darwin area | Other Formats
Station Details ID: 014031 Name: CHARLES POINT Lat: -12.39 Lon: 130.63 Height: 14.0 m
Data from the previous 72 hours. | See also: Recent months for locations in Northern Territory
Date/Time
CST
Tmp

°C
App
Tmp
°C
Dew
Point
°C
Rel
Hum
%
Delta-T

°C
Wind Press
QNH
hPa
Press
MSL
hPa
Rain
since
9 am
mm
Dir
 
Spd
km/h
Gust
km/h
Spd
kts
Gust
kts
19/01:00pm 30.2 31.8 20.7 56 6.3 NW 13 19 7 10 1013.3 1013.2 0.0
19/12:30pm 29.6 31.9 21.3 61 5.6 NW 11 15 6 8 1013.9 1013.8 0.0
19/12:00pm 29.3 31.5 20.5 59 5.8 NNW 9 11 5 6 1014.7 1014.6 0.0
19/11:30am 29.2 31.8 20.4 59 5.8 NNW 7 11 4 6 1015.2 1015.1 0.0
19/11:00am 28.7 31.7 21.2 64 5.0 N 7 9 4 5 1015.7 1015.6 0.0
19/10:30am 29.0 31.5 20.2 59 5.8 NE 7 11 4 6 1016.0 1015.9 0.0
19/10:00am 29.1 31.4 19.4 55 6.3 NE 6 9 3 5 1016.1 1016.0 0.0
19/09:30am 28.4 31.6 20.4 62 5.3 NNE 4 7 2 4 1016.2 1016.1 0.0
19/09:00am 28.2 31.2 20.0 61 5.4 S 4 6 2 3 1016.2 1016.1 0.0
19/08:30am 27.2 30.4 21.2 69 4.0 S 6 7 3 4 1016.1 1016.0 0.0
19/08:00am 25.6 29.4 21.7 79 2.6 S 4 7 2 4 1015.7 1015.6 0.0
19/07:30am 23.8 26.9 21.5 87 1.5 S 7 13 4 7 1015.4 1015.3 0.0
19/07:00am 22.6 25.4 20.9 90 1.1 S 7 9 4 5 1015.0 1014.9 0.0
19/06:30am 22.5 25.6 21.5 94 0.7 S 7 9 4 5 1014.7 1014.6 0.0
19/06:00am 22.9 26.4 22.1 95 0.5 S 7 9 4 5 1014.4 1014.3 0.0
19/05:30am 22.6 26.1 21.8 95 0.5 S 6 9 3 5 1014.1 1014.0 0.0
19/05:00am 22.6 26.0 21.6 94 0.7 S 6 9 3 5 1013.8 1013.7 0.0
19/04:30am 22.8 26.3 21.8 94 0.7 S 6 7 3 4 1013.7 1013.6 0.0
19/04:00am 23.1 26.6 21.9 93 0.8 S 6 7 3 4 1013.9 1013.8 0.0
19/03:30am 23.2 26.8 22.0 93 0.8 S 6 7 3 4 1013.9 1013.8 0.0
19/03:00am 23.3 26.9 22.1 93 0.8 S 6 7 3 4 1013.9 1013.8 0.0
19/02:30am 23.7 27.6 22.5 93 0.8 S 6 7 3 4 1014.0 1013.9 0.0
19/02:00am 23.8 27.6 22.4 92 0.9 S 6 7 3 4 1014.3 1014.2 0.0
19/01:30am 24.0 27.9 22.6 92 0.9 S 6 7 3 4 1014.6 1014.5 0.0
19/01:00am 24.2 28.1 22.5 90 1.1 S 6 7 3 4 1014.9 1014.8 0.0
19/12:30am 24.5 28.4 22.6 89 1.3 S 6 9 3 5 1015.3 1015.2 0.0
19/12:00am 24.3 27.9 22.0 87 1.5 S 6 7 3 4 1015.6 1015.5 0.0
 
Date/Time
CST
Tmp

°C
App
Tmp
°C
Dew
Point
°C
Rel
Hum
%
Delta-T

°C
Wind Press
QNH
hPa
Press
MSL
hPa
Rain
since
9 am
mm
Dir
 
Spd
km/h
Gust
km/h
Spd
kts
Gust
kts
18/11:30pm 24.3 28.0 21.4 84 1.9 SSW 4 6 2 3 1015.5 1015.4 0.0
18/11:00pm 24.5 28.3 21.6 84 1.9 SW 4 7 2 4 1015.4 1015.3 0.0
18/10:30pm 24.7 28.4 21.4 82 2.2 WSW 4 7 2 4 1015.3 1015.2 0.0
18/10:00pm 24.8 28.0 21.3 81 2.3 SSW 6 7 3 4 1015.0 1014.9 0.0
18/09:30pm 25.4 28.4 21.3 78 2.7 S 7 9 4 5 1014.5 1014.4 0.0
18/09:00pm 25.7 28.6 21.1 76 3.0 S 7 9 4 5 1014.1 1014.0 0.0
18/08:30pm 25.9 29.1 21.3 76 3.0 S 6 9 3 5 1013.8 1013.7 0.0
18/08:00pm 26.1 29.0 21.1 74 3.3 S 7 9 4 5 1013.6 1013.5 0.0
18/07:30pm 26.5 29.6 21.0 72 3.6 SSW 6 9 3 5 1013.2 1013.1 0.0
18/07:00pm 26.9 30.1 20.5 68 4.2 SW 4 7 2 4 1012.9 1012.8 0.0
18/06:30pm 27.7 30.8 20.3 64 4.9 WSW 4 9 2 5 1012.4 1012.3 0.0
18/06:00pm 28.5 30.6 20.2 60 5.5 WSW 9 17 5 9 1012.1 1012.0 0.0
18/05:30pm 29.2 31.4 20.4 59 5.8 W 9 17 5 9 1011.8 1011.7 0.0
18/05:00pm 29.4 31.0 20.8 60 5.7 WNW 13 17 7 9 1011.8 1011.7 0.0
18/04:30pm 29.2 30.4 20.6 59 5.7 WNW 15 19 8 10 1011.7 1011.6 0.0
18/04:00pm 29.6 30.3 20.5 58 6.0 WNW 17 22 9 12 1012.0 1011.9 0.0
18/03:30pm 30.0 31.2 21.4 60 5.8 WNW 17 24 9 13 1012.1 1012.0 0.0
18/03:00pm 29.9 31.0 20.5 57 6.2 WNW 15 22 8 12 1012.6 1012.5 0.0
18/02:30pm 29.9 30.3 19.9 55 6.6 WNW 17 20 9 11 1012.9 1012.8 0.0
18/02:00pm 30.0 30.9 20.0 55 6.6 WNW 15 20 8 11 1013.4 1013.3 0.0
18/01:30pm 30.1 31.3 20.6 56 6.3 NW 15 20 8 11 1014.0 1013.9 0.0
18/01:00pm 29.2 31.0 20.4 59 5.8 NW 11 15 6 8 1014.8 1014.7 0.0
18/12:30pm 29.1 30.7 20.0 58 6.0 NNW 11 15 6 8 1015.5 1015.4 0.0
18/12:00pm 29.1 31.3 20.3 59 5.8 NNW 9 13 5 7 1016.2 1016.1 0.0
18/11:30am 28.7 31.2 20.2 60 5.6 NW 7 11 4 6 1016.6 1016.5 0.0
18/11:00am 28.2 30.2 19.2 58 5.8 N 7 11 4 6 1016.8 1016.7 0.0
18/10:30am 28.1 30.3 19.1 58 5.8 NE 6 9 3 5 1017.1 1017.0 0.0
18/10:00am 28.3 30.5 19.2 57 5.9 NE 6 9 3 5 1017.3 1017.2 0.0
18/09:30am 27.9 30.3 19.7 61 5.3 NE 6 9 3 5 1017.1 1017.0 0.0
18/09:00am 27.7 30.2 19.8 62 5.1 ENE 6 7 3 4 1016.9 1016.8 0.0
18/08:30am 27.4 30.1 19.5 62 5.1 ENE 4 7 2 4 1016.5 1016.4 0.0
18/08:00am 26.6 30.2 19.7 66 4.5 CALM 0 0 0 0 1016.2 1016.1 0.0
18/07:30am 23.0 26.1 19.6 81 2.2 E 2 4 1 2 1015.8 1015.7 0.0
18/07:00am 21.5 24.8 19.1 86 1.5 CALM 0 0 0 0 1015.5 1015.4 0.0
18/06:30am 21.2 24.0 18.9 87 1.4 E 2 4 1 2 1015.0 1014.9 0.0
18/06:00am 21.4 23.9 19.0 86 1.5 E 4 4 2 2 1014.6 1014.5 0.0
18/05:30am 22.7 25.2 19.1 80 2.3 ENE 4 7 2 4 1014.4 1014.3 0.0
18/05:00am 22.6 25.7 19.4 82 2.0 N 2 4 1 2 1014.3 1014.2 0.0
18/04:30am 22.9 26.5 19.7 82 2.1 CALM 0 2 0 1 1014.1 1014.0 0.0
18/04:00am 23.4 27.0 19.8 80 2.3 CALM 0 6 0 3 1014.2 1014.1 0.0
18/03:30am 24.5 27.7 19.8 75 3.0 N 2 4 1 2 1014.2 1014.1 0.0
18/03:00am 26.4 28.4 20.0 68 4.2 N 9 13 5 7 1014.2 1014.1 0.0
18/02:30am 26.4 28.8 20.0 68 4.2 N 7 13 4 7 1014.4 1014.3 0.0
18/02:00am 26.6 28.4 20.4 69 4.1 N 11 17 6 9 1014.8 1014.7 0.0
18/01:30am 26.7 28.1 20.3 68 4.2 N 13 15 7 8 1015.0 1014.9 0.0
18/01:00am 26.8 28.5 20.2 67 4.3 N 11 15 6 8 1015.2 1015.1 0.0
18/12:30am 26.8 27.8 21.1 71 3.8 N 17 22 9 12 1015.4 1015.3 0.0
18/12:00am 26.9 28.0 21.9 74 3.3 NNW 19 24 10 13 1015.4 1015.3 0.0
 
Date/Time
CST
Tmp

°C
App
Tmp
°C
Dew
Point
°C
Rel
Hum
%
Delta-T

°C
Wind Press
QNH
hPa
Press
MSL
hPa
Rain
since
9 am
mm
Dir
 
Spd
km/h
Gust
km/h
Spd
kts
Gust
kts
17/11:30pm 27.0 27.6 21.3 71 3.8 NNW 20 26 11 14 1015.3 1015.2 0.0
17/11:00pm 27.1 27.9 21.4 71 3.8 NNW 19 28 10 15 1015.3 1015.2 0.0
17/10:30pm 27.4 28.8 21.9 72 3.7 NW 17 24 9 13 1015.1 1015.0 0.0
17/10:00pm 27.5 28.4 21.5 70 4.0 NW 19 28 10 15 1014.9 1014.8 0.0
17/09:30pm 27.5 28.9 21.8 71 3.8 NW 17 28 9 15 1014.7 1014.6 0.0
17/09:00pm 26.0 29.5 19.6 68 4.1 CALM 0 2 0 1 1014.4 1014.3 0.0
17/08:30pm 26.4 28.9 19.8 67 4.3 S 6 9 3 5 1013.7 1013.6 0.0
17/08:00pm 26.5 28.2 18.6 62 5.0 S 7 9 4 5 1013.0 1012.9 0.0
17/07:30pm 26.9 28.5 17.9 57 5.7 SSW 6 9 3 5 1012.4 1012.3 0.0
17/07:00pm 27.3 28.8 17.5 55 6.2 SW 6 7 3 4 1012.1 1012.0 0.0
17/06:30pm 28.6 31.2 18.4 54 6.5 W 2 6 1 3 1011.8 1011.7 0.0
17/06:00pm 29.7 32.1 18.8 52 7.0 WNW 4 6 2 3 1011.4 1011.3 0.0
17/05:30pm 29.1 31.4 18.5 52 6.8 N 4 6 2 3 1011.2 1011.1 0.0
17/05:00pm 29.2 30.7 18.0 51 7.1 NNE 7 11 4 6 1011.1 1011.0 0.0
17/04:30pm 29.5 30.9 17.7 49 7.5 NNE 7 11 4 6 1011.1 1011.0 0.0
17/04:00pm 29.5 29.5 17.3 47 7.7 N 13 17 7 9 1011.1 1011.0 0.0
17/03:30pm 29.6 30.6 18.7 52 7.0 N 11 13 6 7 1011.2 1011.1 0.0
17/03:00pm 29.7 30.9 18.2 50 7.4 N 9 13 5 7 1011.5 1011.4 0.0
17/02:30pm 29.6 31.5 20.5 58 6.0 NW 11 19 6 10 1011.9 1011.8 0.0
17/02:00pm 29.6 31.2 20.7 58 5.9 NNW 13 20 7 11 1012.3 1012.2 0.0
17/01:30pm 28.9 29.5 21.1 62 5.2 N 19 22 10 12 1012.6 1012.5 0.0
17/01:00pm 28.9 29.2 19.5 57 6.1 N 17 20 9 11 1013.1 1013.0 0.0
17/12:30pm 29.2 31.1 19.8 57 6.2 NNE 9 13 5 7 1013.8 1013.7 0.0
17/12:00pm 29.7 32.1 20.0 56 6.4 NNE 7 9 4 5 1014.3 1014.2 0.0
17/11:30am 29.3 31.7 19.6 56 6.3 NNE 6 9 3 5 1014.7 1014.6 0.0
17/11:00am 28.5 31.6 21.0 64 5.0 N 6 7 3 4 1014.9 1014.8 0.0
17/10:30am 28.1 31.6 21.9 69 4.2 N 6 9 3 5 1015.1 1015.0 0.0
17/10:00am 28.1 31.8 22.3 70 3.9 NW 6 7 3 4 1015.2 1015.1 0.0
17/09:30am 27.3 30.8 21.1 69 4.1 NNW 4 6 2 3 1015.1 1015.0 0.0
17/09:00am 27.8 31.2 20.9 66 4.6 SSE 4 6 2 3 1014.9 1014.8 0.0
17/08:30am 26.7 30.5 21.7 74 3.3 SSE 4 7 2 4 1014.7 1014.6 0.0
17/08:00am 25.3 28.8 21.8 81 2.3 S 6 9 3 5 1014.4 1014.3 0.0
17/07:30am 23.7 27.0 21.8 89 1.3 S 7 9 4 5 1014.1 1014.0 0.0
17/07:00am 22.3 25.4 21.1 93 0.8 S 6 7 3 4 1013.8 1013.7 0.0
17/06:30am 22.2 25.0 20.8 92 0.9 S 7 9 4 5 1013.6 1013.5 0.0
17/06:00am 22.0 24.9 20.6 92 0.9 S 6 7 3 4 1013.2 1013.1 0.0
17/05:30am 22.0 24.8 20.5 91 1.0 S 6 7 3 4 1012.8 1012.7 0.0
17/05:00am 22.2 25.8 20.5 90 1.1 W 2 4 1 2 1012.6 1012.5 0.0
17/04:30am 22.6 26.6 20.5 88 1.4 CALM 0 0 0 0 1012.5 1012.4 0.0
17/04:00am 23.1 26.7 20.6 86 1.6 W 2 4 1 2 1012.2 1012.1 0.0
17/03:30am 23.6 27.3 20.7 84 1.9 WNW 2 6 1 3 1012.2 1012.1 0.0
17/03:00am 23.3 26.9 20.6 85 1.8 SW 2 4 1 2 1012.4 1012.3 0.0
17/02:30am 23.5 26.8 20.8 85 1.8 SW 4 6 2 3 1012.5 1012.4 0.0
17/02:00am 23.6 26.9 20.7 84 1.9 WSW 4 6 2 3 1012.7 1012.6 0.0
17/01:30am 24.0 27.3 20.7 82 2.2 WSW 4 6 2 3 1012.9 1012.8 0.0
17/01:00am 24.9 28.2 20.8 78 2.7 WSW 4 7 2 4 1013.1 1013.0 0.0
17/12:30am 25.3 28.7 21.0 77 2.8 W 4 7 2 4 1013.2 1013.1 0.0
17/12:00am 26.0 28.6 21.2 75 3.2 WNW 9 13 5 7 1013.4 1013.3 0.0
 
Date/Time
CST
Tmp

°C
App
Tmp
°C
Dew
Point
°C
Rel
Hum
%
Delta-T

°C
Wind Press
QNH
hPa
Press
MSL
hPa
Rain
since
9 am
mm
Dir
 
Spd
km/h
Gust
km/h
Spd
kts
Gust
kts
16/11:30pm 26.6 29.0 21.6 74 3.3 WNW 11 17 6 9 1013.3 1013.2 0.0
16/11:00pm 26.7 28.9 21.9 75 3.2 WNW 13 17 7 9 1013.2 1013.1 0.0
16/10:30pm 26.8 28.2 21.8 74 3.3 WNW 17 20 9 11 1013.0 1012.9 0.0
16/10:00pm 27.0 28.3 21.7 73 3.5 WNW 17 20 9 11 1012.6 1012.5 0.0
16/09:30pm 27.1 28.4 21.6 72 3.7 W 17 26 9 14 1012.3 1012.2 0.0
16/09:00pm 27.3 28.1 21.8 72 3.7 WNW 20 24 11 13 1012.0 1011.9 0.0
16/08:30pm 27.4 28.7 22.4 74 3.4 WNW 19 22 10 12 1011.8 1011.7 0.0
16/08:00pm 28.5 30.6 20.2 60 5.5 NNE 9 13 5 7 1011.2 1011.1 0.0
16/07:30pm 28.3 30.0 20.1 61 5.4 NNE 11 15 6 8 1010.9 1010.8 0.0
16/07:00pm 28.1 29.3 20.6 63 4.9 NE 15 20 8 11 1010.3 1010.2 0.0
16/06:30pm 28.2 29.0 20.7 63 5.0 NE 17 26 9 14 1010.1 1010.0 0.0
16/06:00pm 28.3 28.8 20.8 63 5.0 NE 19 28 10 15 1010.0 1009.9 0.0
16/05:30pm 28.6 28.9 19.5 58 5.9 NE 17 24 9 13 1010.0 1009.9 0.0
16/05:00pm 29.2 29.6 19.8 57 6.2 NE 17 22 9 12 1010.0 1009.9 0.0
16/04:30pm 29.4 30.1 19.7 56 6.4 NE 15 22 8 12 1010.1 1010.0 0.0
16/04:00pm 29.8 28.9 18.3 50 7.4 NNE 20 26 11 14 1010.1 1010.0 0.0
16/03:30pm 30.2 29.8 18.0 48 7.8 NNE 17 24 9 13 1010.6 1010.5 0.0
16/03:00pm 30.1 30.6 19.2 52 7.1 NNE 15 19 8 10 1011.0 1010.9 0.0
16/02:30pm 29.4 31.6 19.7 56 6.3 N 7 11 4 6 1011.5 1011.4 0.0
16/02:00pm 28.9 31.6 20.6 61 5.5 N 7 11 4 6 1011.8 1011.7 0.0
16/01:30pm 28.7 31.5 20.4 60 5.5 N 6 9 3 5 1012.2 1012.1 0.0

Latest Capital City Observations: Canberra | Sydney | Melbourne | Brisbane | Adelaide | Perth | Hobart | Darwin

Other Formats:

Comma delimited format used in spreadsheet applications
http://www.bom.gov.au/fwo/IDD60901/IDD60901.99510.axf

JavaScript Object Notation format (JSON) in row-major order
http://www.bom.gov.au/fwo/IDD60901/IDD60901.99510.json